createdAt,value
2018-05-09T00:02:19.997Z,15.27
2018-05-09T00:04:48.330Z,15.21
2018-05-09T00:07:17.030Z,15.18
2018-05-09T00:09:45.391Z,15.19
2018-05-09T00:12:13.715Z,14.97
2018-05-09T00:14:42.021Z,14.91
2018-05-09T00:17:10.364Z,14.83
2018-05-09T00:19:38.727Z,14.87
2018-05-09T00:22:06.993Z,14.85
2018-05-09T00:24:35.353Z,14.82
2018-05-09T00:27:03.709Z,14.89
2018-05-09T00:29:32.135Z,14.90
2018-05-09T00:32:01.632Z,14.87
2018-05-09T00:34:29.990Z,14.90
2018-05-09T00:36:58.732Z,15.03
2018-05-09T00:39:27.119Z,15.10
2018-05-09T00:42:00.166Z,15.08
2018-05-09T00:44:28.570Z,15.00
2018-05-09T00:46:57.031Z,15.04
2018-05-09T00:49:25.463Z,14.87
2018-05-09T00:51:54.229Z,14.87
2018-05-09T00:54:36.322Z,14.87
2018-05-09T00:57:06.551Z,14.84
2018-05-09T00:59:35.469Z,14.85
2018-05-09T01:02:03.872Z,14.84
2018-05-09T01:04:32.350Z,14.79
2018-05-09T01:07:00.712Z,14.79
2018-05-09T01:09:31.442Z,14.75
2018-05-09T01:12:00.535Z,14.74
2018-05-09T01:14:29.381Z,14.75
2018-05-09T01:16:58.500Z,14.79
2018-05-09T01:19:26.910Z,14.84
2018-05-09T01:21:55.409Z,14.86
2018-05-09T01:24:24.053Z,14.97
2018-05-09T01:26:53.969Z,14.99
2018-05-09T01:29:22.400Z,15.05
2018-05-09T01:31:50.795Z,15.05
2018-05-09T01:34:19.192Z,15.01
2018-05-09T01:36:47.716Z,14.95
2018-05-09T01:39:16.235Z,14.88
2018-05-09T01:41:44.890Z,14.81
2018-05-09T01:44:13.690Z,14.75
2018-05-09T01:46:42.591Z,14.67
2018-05-09T01:49:10.997Z,14.70
2018-05-09T01:51:40.132Z,14.67
2018-05-09T01:54:08.587Z,14.61
2018-05-09T01:56:37.023Z,14.64
2018-05-09T01:59:05.487Z,14.65
2018-05-09T02:01:33.831Z,14.72
2018-05-09T02:04:02.224Z,14.79
2018-05-09T02:06:30.579Z,14.85
2018-05-09T02:11:35.852Z,14.91
2018-05-09T02:14:04.240Z,14.95
2018-05-09T02:16:32.663Z,14.96
2018-05-09T02:19:01.089Z,14.99
2018-05-09T02:21:29.466Z,15.03
2018-05-09T02:23:57.854Z,15.08
2018-05-09T02:26:26.742Z,15.09
2018-05-09T02:28:57.337Z,15.08
2018-05-09T02:31:25.733Z,15.08
2018-05-09T02:33:54.146Z,15.07
2018-05-09T02:36:30.176Z,15.09
2018-05-09T02:38:58.748Z,15.10
2018-05-09T02:41:27.292Z,15.11
2018-05-09T02:43:57.966Z,15.12
2018-05-09T02:46:26.323Z,15.13
2018-05-09T02:48:55.285Z,15.18
2018-05-09T02:51:23.738Z,15.18
2018-05-09T02:53:52.180Z,15.15
2018-05-09T02:56:21.005Z,15.11
2018-05-09T02:58:49.424Z,15.09
2018-05-09T03:01:17.797Z,14.99
2018-05-09T03:03:46.308Z,14.92
2018-05-09T03:06:14.985Z,14.80
2018-05-09T03:08:43.550Z,14.69
2018-05-09T03:11:11.892Z,14.59
2018-05-09T03:13:40.259Z,14.56
2018-05-09T03:16:08.614Z,14.54
2018-05-09T03:18:36.939Z,14.43
2018-05-09T03:21:05.307Z,14.35
2018-05-09T03:23:33.684Z,14.27
2018-05-09T03:26:02.164Z,14.25
2018-05-09T03:28:30.800Z,14.15
2018-05-09T03:30:59.200Z,14.10
2018-05-09T03:33:27.591Z,14.04
2018-05-09T03:35:55.896Z,14.00
2018-05-09T03:38:27.221Z,13.97
2018-05-09T03:40:55.539Z,13.95
2018-05-09T03:43:24.251Z,13.95
2018-05-09T03:45:53.576Z,13.98
2018-05-09T03:48:21.996Z,13.93
2018-05-09T03:50:50.327Z,13.98
2018-05-09T03:53:18.745Z,14.04
2018-05-09T03:55:47.024Z,14.05
2018-05-09T03:58:15.455Z,14.06
2018-05-09T04:00:43.781Z,14.12
2018-05-09T04:03:23.888Z,14.20
2018-05-09T04:06:05.329Z,14.26
2018-05-09T04:08:45.572Z,14.34
2018-05-09T04:11:13.900Z,14.46
2018-05-09T04:13:42.268Z,14.46
2018-05-09T04:16:10.757Z,14.44
2018-05-09T04:18:39.080Z,14.49
2018-05-09T04:21:07.463Z,14.57
2018-05-09T04:23:36.020Z,14.61
2018-05-09T04:26:04.418Z,14.70
2018-05-09T04:28:32.831Z,14.83
2018-05-09T04:31:01.533Z,14.92
2018-05-09T04:33:30.982Z,14.91
2018-05-09T04:35:59.663Z,14.97
2018-05-09T04:38:28.123Z,15.09
2018-05-09T04:40:56.514Z,15.39
2018-05-09T04:43:25.045Z,15.64
2018-05-09T04:45:53.366Z,15.75
2018-05-09T04:48:21.832Z,16.03
2018-05-09T04:50:50.170Z,16.19
2018-05-09T04:53:18.575Z,16.42
2018-05-09T04:55:46.916Z,16.49
2018-05-09T04:58:15.400Z,16.63
2018-05-09T05:00:43.752Z,16.56
2018-05-09T05:03:12.128Z,16.39
2018-05-09T05:05:40.495Z,16.51
2018-05-09T05:08:08.824Z,16.38
2018-05-09T05:10:37.251Z,16.39
2018-05-09T05:13:05.610Z,16.44
2018-05-09T05:15:33.969Z,16.40
2018-05-09T05:18:02.384Z,16.49
2018-05-09T05:20:30.803Z,16.43
2018-05-09T05:22:59.197Z,16.57
2018-05-09T05:25:27.615Z,16.70
2018-05-09T05:27:56.131Z,16.58
2018-05-09T05:30:24.519Z,16.68
2018-05-09T05:32:53.043Z,16.70
2018-05-09T05:35:21.379Z,16.74
2018-05-09T05:37:49.815Z,16.78
2018-05-09T05:40:18.188Z,16.81
2018-05-09T05:42:46.537Z,16.95
2018-05-09T05:45:15.083Z,17.18
2018-05-09T05:47:43.625Z,17.40
2018-05-09T05:50:12.026Z,17.60
2018-05-09T05:52:42.743Z,18.06
2018-05-09T05:55:11.174Z,18.43
2018-05-09T05:57:39.520Z,18.63
2018-05-09T06:00:07.909Z,18.85
2018-05-09T06:02:36.529Z,18.62
2018-05-09T06:05:04.926Z,18.51
2018-05-09T06:07:33.322Z,18.96
2018-05-09T06:10:02.255Z,20.50
2018-05-09T06:12:30.638Z,22.09
2018-05-09T06:14:59.199Z,23.58
2018-05-09T06:17:27.576Z,24.38
2018-05-09T06:19:55.939Z,25.37
2018-05-09T06:22:24.356Z,26.21
2018-05-09T06:24:52.776Z,27.53
2018-05-09T06:27:21.193Z,28.47
2018-05-09T06:29:49.557Z,28.49
2018-05-09T06:32:17.948Z,28.62
2018-05-09T06:34:46.405Z,28.14
2018-05-09T06:37:14.756Z,29.33
2018-05-09T06:39:43.515Z,30.78
2018-05-09T06:42:11.934Z,28.25
2018-05-09T06:44:40.847Z,28.85
2018-05-09T06:47:10.552Z,28.74
2018-05-09T06:49:38.979Z,29.29
2018-05-09T06:52:07.299Z,29.44
2018-05-09T06:54:35.839Z,29.42
2018-05-09T06:57:04.196Z,28.35
2018-05-09T06:59:32.976Z,29.38
2018-05-09T07:02:01.614Z,29.64
2018-05-09T07:04:29.994Z,30.31
2018-05-09T07:06:58.355Z,30.80
2018-05-09T07:09:26.712Z,31.78
2018-05-09T07:11:55.135Z,31.33
2018-05-09T07:14:23.483Z,31.19
2018-05-09T07:16:51.815Z,30.10
2018-05-09T07:19:20.163Z,30.52
2018-05-09T07:21:48.541Z,31.05
2018-05-09T07:24:17.305Z,30.87
2018-05-09T07:26:45.643Z,30.58
2018-05-09T07:29:13.989Z,29.60
2018-05-09T07:31:45.009Z,29.81
2018-05-09T07:34:13.376Z,29.12
2018-05-09T07:36:42.354Z,29.04
2018-05-09T07:39:14.386Z,29.11
2018-05-09T07:41:42.734Z,29.93
2018-05-09T07:44:11.159Z,30.10
2018-05-09T07:46:39.577Z,30.63
2018-05-09T07:49:08.064Z,30.02
2018-05-09T07:51:36.600Z,29.88
2018-05-09T07:54:04.962Z,28.66
2018-05-09T07:56:33.410Z,27.73
2018-05-09T07:59:01.717Z,27.33
2018-05-09T08:01:30.110Z,27.01
2018-05-09T08:03:58.568Z,27.53
2018-05-09T08:06:26.872Z,28.49
2018-05-09T08:08:55.199Z,28.70
2018-05-09T08:11:23.532Z,30.72
2018-05-09T08:13:51.948Z,31.78
2018-05-09T08:16:20.333Z,32.22
2018-05-09T08:18:48.685Z,32.16
2018-05-09T08:21:17.036Z,32.13
2018-05-09T08:23:45.482Z,31.15
2018-05-09T08:26:14.009Z,30.99
2018-05-09T08:28:42.417Z,30.65
2018-05-09T08:31:10.725Z,30.48
2018-05-09T08:33:39.036Z,30.79
2018-05-09T08:36:07.347Z,30.51
2018-05-09T08:38:35.799Z,30.70
2018-05-09T08:41:04.144Z,30.42
2018-05-09T08:43:32.758Z,30.74
2018-05-09T08:46:01.179Z,30.79
2018-05-09T08:48:29.580Z,29.90
2018-05-09T08:50:57.889Z,28.87
2018-05-09T08:53:26.198Z,27.89
2018-05-09T08:55:54.543Z,27.52
2018-05-09T08:58:22.923Z,26.82
2018-05-09T09:00:51.226Z,26.56
2018-05-09T09:03:19.581Z,26.47
2018-05-09T09:05:47.956Z,26.00
2018-05-09T09:08:16.286Z,25.80
2018-05-09T09:10:44.794Z,25.35
2018-05-09T09:13:13.098Z,25.25
2018-05-09T09:15:41.462Z,25.09
2018-05-09T09:18:09.780Z,24.98
2018-05-09T09:20:38.124Z,24.92
2018-05-09T09:23:06.684Z,25.26
2018-05-09T09:25:35.291Z,25.45
2018-05-09T09:28:03.795Z,25.78
2018-05-09T09:30:32.709Z,27.68
2018-05-09T09:33:01.502Z,28.86
2018-05-09T09:35:30.022Z,29.32
2018-05-09T09:37:58.643Z,29.85
2018-05-09T09:40:27.036Z,30.72
2018-05-09T09:42:55.341Z,30.97
2018-05-09T09:45:23.690Z,31.77
2018-05-09T09:47:52.045Z,31.78
2018-05-09T09:50:20.445Z,32.05
2018-05-09T09:52:48.779Z,32.18
2018-05-09T09:55:17.215Z,32.07
2018-05-09T09:57:45.602Z,32.14
2018-05-09T10:00:13.946Z,31.71
2018-05-09T10:02:42.290Z,31.49
2018-05-09T10:05:10.609Z,32.19
2018-05-09T10:07:38.956Z,32.04
2018-05-09T10:10:07.258Z,31.80
2018-05-09T10:12:35.659Z,31.85
2018-05-09T10:15:04.006Z,31.27
2018-05-09T10:17:32.335Z,31.69
2018-05-09T10:20:00.741Z,31.78
2018-05-09T10:22:29.055Z,31.70
2018-05-09T10:24:57.410Z,32.35
2018-05-09T10:27:25.717Z,32.60
2018-05-09T10:29:54.121Z,32.48
2018-05-09T10:32:22.432Z,32.64
2018-05-09T10:34:50.735Z,32.78
2018-05-09T10:37:19.168Z,32.31
2018-05-09T10:39:47.625Z,31.35
2018-05-09T10:42:15.958Z,31.75
2018-05-09T10:44:44.347Z,30.30
2018-05-09T10:47:12.743Z,29.15
2018-05-09T10:49:41.112Z,29.37
2018-05-09T10:52:09.476Z,30.48
2018-05-09T10:54:37.826Z,29.99
2018-05-09T10:57:06.145Z,29.72
2018-05-09T10:59:34.572Z,30.16
2018-05-09T11:02:02.913Z,30.68
2018-05-09T11:04:31.263Z,30.36
2018-05-09T11:06:59.676Z,30.34
2018-05-09T11:09:28.021Z,30.49
2018-05-09T11:11:56.346Z,31.36
2018-05-09T11:14:24.692Z,30.21
2018-05-09T11:16:53.000Z,30.55
2018-05-09T11:19:21.305Z,30.39
2018-05-09T11:21:49.645Z,30.49
2018-05-09T11:24:17.993Z,30.35
2018-05-09T11:26:46.301Z,29.44
2018-05-09T11:29:14.624Z,29.23
2018-05-09T11:31:42.964Z,29.86
2018-05-09T11:34:11.376Z,29.74
2018-05-09T11:36:39.700Z,30.48
2018-05-09T11:39:08.071Z,31.15
2018-05-09T11:41:36.376Z,30.84
2018-05-09T11:44:04.693Z,30.14
2018-05-09T11:46:33.028Z,30.75
2018-05-09T11:49:01.409Z,29.52
2018-05-09T11:51:29.739Z,29.79
2018-05-09T11:53:58.043Z,30.19
2018-05-09T11:56:26.383Z,29.08
2018-05-09T11:58:54.702Z,28.52
2018-05-09T12:01:23.039Z,28.56
2018-05-09T12:03:51.367Z,28.90
2018-05-09T12:06:19.756Z,30.14
2018-05-09T12:08:48.159Z,30.42
2018-05-09T12:11:16.476Z,29.85
2018-05-09T12:13:44.836Z,30.61
2018-05-09T12:16:13.243Z,30.54
2018-05-09T12:18:41.593Z,29.77
2018-05-09T12:21:10.062Z,30.25
2018-05-09T12:23:38.400Z,30.92
2018-05-09T12:26:06.882Z,32.24
2018-05-09T12:28:35.184Z,30.63
2018-05-09T12:31:03.501Z,29.17
2018-05-09T12:33:31.847Z,29.20
2018-05-09T12:36:00.143Z,29.32
2018-05-09T12:38:28.466Z,29.46
2018-05-09T12:40:56.843Z,28.97
2018-05-09T12:43:25.230Z,28.87
2018-05-09T12:45:53.636Z,28.61
2018-05-09T12:48:22.055Z,29.29
2018-05-09T12:50:50.432Z,29.57
2018-05-09T12:53:18.744Z,30.62
2018-05-09T12:55:47.434Z,30.74
2018-05-09T12:58:15.815Z,29.84
2018-05-09T13:00:45.139Z,30.38
2018-05-09T13:03:13.472Z,29.53
2018-05-09T13:05:41.784Z,29.20
2018-05-09T13:08:10.120Z,29.31
2018-05-09T13:10:38.510Z,29.08
2018-05-09T13:13:06.970Z,30.36
2018-05-09T13:15:35.284Z,30.03
2018-05-09T13:18:03.639Z,29.60
2018-05-09T13:20:31.956Z,30.73
2018-05-09T13:23:00.274Z,31.90
2018-05-09T13:25:28.631Z,31.17
2018-05-09T13:27:56.951Z,29.07
2018-05-09T13:30:25.281Z,28.44
2018-05-09T13:32:53.585Z,28.18
2018-05-09T13:35:21.933Z,27.14
2018-05-09T13:37:50.330Z,25.64
2018-05-09T13:40:18.692Z,24.35
2018-05-09T13:42:47.021Z,23.49
2018-05-09T13:45:15.397Z,23.10
2018-05-09T13:47:43.768Z,22.88
2018-05-09T13:50:12.234Z,22.78
2018-05-09T13:52:40.642Z,22.78
2018-05-09T13:55:09.057Z,22.82
2018-05-09T13:57:37.430Z,22.83
2018-05-09T14:00:05.754Z,22.75
2018-05-09T14:02:34.066Z,22.71
2018-05-09T14:05:02.392Z,22.72
2018-05-09T14:07:30.788Z,23.56
2018-05-09T14:09:59.151Z,24.76
2018-05-09T14:12:27.533Z,25.91
2018-05-09T14:14:55.860Z,26.55
2018-05-09T14:17:24.366Z,27.16
2018-05-09T14:19:52.700Z,28.09
2018-05-09T14:22:21.180Z,29.12
2018-05-09T14:24:49.508Z,29.92
2018-05-09T14:27:17.898Z,30.45
2018-05-09T14:29:46.262Z,29.54
2018-05-09T14:32:14.717Z,29.34
2018-05-09T14:34:42.943Z,29.04
2018-05-09T14:37:11.931Z,28.26
2018-05-09T14:39:40.267Z,27.98
2018-05-09T14:42:08.602Z,28.73
2018-05-09T14:44:37.002Z,28.97
2018-05-09T14:47:05.340Z,29.62
2018-05-09T14:49:33.691Z,29.82
2018-05-09T14:52:02.023Z,30.17
2018-05-09T14:54:30.345Z,30.23
2018-05-09T14:56:58.693Z,30.15
2018-05-09T14:59:27.004Z,30.27
2018-05-09T15:01:55.336Z,30.07
2018-05-09T15:04:23.736Z,30.66
2018-05-09T15:06:52.049Z,30.39
2018-05-09T15:09:20.374Z,30.47
2018-05-09T15:11:49.062Z,30.33
2018-05-09T15:14:17.511Z,29.73
2018-05-09T15:16:45.884Z,29.71
2018-05-09T15:19:14.211Z,29.18
2018-05-09T15:21:42.571Z,29.20
2018-05-09T15:24:10.889Z,28.93
2018-05-09T15:26:39.305Z,29.01
2018-05-09T15:29:07.696Z,28.77
2018-05-09T15:31:39.634Z,28.71
2018-05-09T15:34:07.950Z,28.77
2018-05-09T15:36:36.274Z,28.35
2018-05-09T15:39:04.685Z,27.96
2018-05-09T15:41:32.915Z,28.67
2018-05-09T15:44:01.242Z,28.57
2018-05-09T15:46:29.583Z,28.78
2018-05-09T15:48:57.929Z,28.75
2018-05-09T15:51:26.243Z,28.86
2018-05-09T15:53:54.628Z,28.58
2018-05-09T15:56:23.046Z,28.10
2018-05-09T15:58:51.375Z,27.71
2018-05-09T16:01:19.756Z,27.81
2018-05-09T16:03:48.086Z,27.73
2018-05-09T16:06:16.398Z,27.75
2018-05-09T16:08:44.737Z,27.83
2018-05-09T16:11:13.158Z,27.78
2018-05-09T16:13:41.534Z,27.63
2018-05-09T16:16:09.841Z,27.26
2018-05-09T16:18:38.340Z,27.20
2018-05-09T16:21:06.659Z,26.90
2018-05-09T16:23:34.974Z,27.00
2018-05-09T16:26:03.459Z,26.96
2018-05-09T16:28:31.809Z,26.95
2018-05-09T16:31:00.123Z,26.92
2018-05-09T16:33:28.580Z,26.87
2018-05-09T16:35:56.939Z,27.05
2018-05-09T16:38:25.310Z,27.17
2018-05-09T16:40:53.702Z,26.96
2018-05-09T16:43:22.097Z,26.56
2018-05-09T16:45:50.464Z,26.26
2018-05-09T16:48:19.065Z,25.96
2018-05-09T16:50:47.409Z,25.70
2018-05-09T16:53:15.820Z,25.69
2018-05-09T16:55:44.070Z,25.71
2018-05-09T16:58:12.468Z,25.80
2018-05-09T17:00:40.847Z,25.52
2018-05-09T17:03:09.179Z,25.45
2018-05-09T17:05:37.568Z,25.25
2018-05-09T17:08:05.816Z,25.13
2018-05-09T17:10:34.207Z,25.10
2018-05-09T17:13:02.605Z,25.08
2018-05-09T17:15:31.000Z,24.83
2018-05-09T17:17:59.400Z,24.71
2018-05-09T17:20:27.831Z,24.61
2018-05-09T17:22:56.189Z,24.55
2018-05-09T17:25:25.089Z,24.40
2018-05-09T17:27:53.583Z,24.37
2018-05-09T17:30:22.023Z,24.35
2018-05-09T17:32:50.393Z,24.29
2018-05-09T17:35:18.702Z,24.22
2018-05-09T17:37:47.032Z,24.21
2018-05-09T17:40:15.460Z,24.04
2018-05-09T17:42:43.857Z,24.03
2018-05-09T17:45:12.219Z,23.93
2018-05-09T17:47:40.533Z,23.89
2018-05-09T17:50:08.864Z,23.88
2018-05-09T17:52:37.285Z,23.81
2018-05-09T17:55:05.603Z,23.73
2018-05-09T17:57:33.938Z,23.65
2018-05-09T18:00:02.257Z,23.63
2018-05-09T18:02:30.601Z,23.54
2018-05-09T18:04:58.958Z,23.52
2018-05-09T18:07:27.284Z,23.45
2018-05-09T18:09:55.617Z,23.34
2018-05-09T18:12:24.007Z,23.26
2018-05-09T18:14:52.335Z,23.21
2018-05-09T18:17:20.659Z,23.06
2018-05-09T18:19:48.981Z,23.02
2018-05-09T18:22:17.700Z,22.95
2018-05-09T18:24:50.524Z,22.87
2018-05-09T18:27:18.855Z,22.82
2018-05-09T18:29:47.223Z,22.75
2018-05-09T18:32:15.565Z,22.69
2018-05-09T18:34:43.942Z,22.64
2018-05-09T18:37:12.256Z,22.49
2018-05-09T18:39:40.582Z,22.43
2018-05-09T18:42:08.932Z,22.40
2018-05-09T18:44:37.364Z,22.34
2018-05-09T18:47:05.678Z,22.37
2018-05-09T18:49:34.000Z,22.30
2018-05-09T18:52:02.331Z,22.28
2018-05-09T18:54:30.669Z,22.17
2018-05-09T18:56:59.045Z,22.10
2018-05-09T18:59:27.509Z,21.96
2018-05-09T19:01:55.884Z,21.98
2018-05-09T19:04:24.204Z,21.88
2018-05-09T19:06:52.588Z,21.82
2018-05-09T19:09:20.896Z,21.80
2018-05-09T19:11:49.233Z,21.73
2018-05-09T19:14:17.652Z,21.61
2018-05-09T19:16:46.010Z,21.57
2018-05-09T19:19:14.324Z,21.52
2018-05-09T19:21:42.662Z,21.51
2018-05-09T19:24:10.975Z,21.55
2018-05-09T19:26:39.290Z,21.52
2018-05-09T19:29:07.612Z,21.50
2018-05-09T19:31:35.923Z,21.53
2018-05-09T19:34:04.313Z,21.55
2018-05-09T19:36:32.626Z,21.56
2018-05-09T19:39:00.956Z,21.57
2018-05-09T19:41:29.461Z,21.51
2018-05-09T19:43:57.794Z,21.51
2018-05-09T19:46:26.142Z,21.53
2018-05-09T19:48:54.488Z,21.55
2018-05-09T19:51:22.827Z,21.52
2018-05-09T19:53:51.182Z,21.53
2018-05-09T19:56:19.581Z,21.52
2018-05-09T19:58:47.904Z,21.55
2018-05-09T20:01:16.269Z,21.52
2018-05-09T20:03:44.744Z,21.55
2018-05-09T20:06:13.059Z,21.50
2018-05-09T20:08:41.487Z,21.44
2018-05-09T20:11:09.824Z,21.36
2018-05-09T20:13:38.159Z,21.33
2018-05-09T20:16:06.485Z,21.33
2018-05-09T20:18:34.848Z,21.29
2018-05-09T20:21:03.249Z,21.22
2018-05-09T20:23:31.601Z,21.22
2018-05-09T20:25:59.950Z,21.17
2018-05-09T20:28:28.272Z,21.19
2018-05-09T20:31:02.271Z,21.15
2018-05-09T20:33:30.574Z,21.10
2018-05-09T20:35:58.949Z,21.04
2018-05-09T20:38:27.337Z,21.03
2018-05-09T20:40:55.681Z,21.01
2018-05-09T20:43:24.064Z,20.99
2018-05-09T20:45:52.445Z,20.98
2018-05-09T20:48:20.805Z,20.92
2018-05-09T20:50:49.118Z,20.83
2018-05-09T20:53:17.734Z,20.78
2018-05-09T20:55:46.016Z,20.72
2018-05-09T20:58:14.417Z,20.73
2018-05-09T21:00:42.750Z,20.68
2018-05-09T21:03:11.075Z,20.61
2018-05-09T21:05:39.595Z,20.57
2018-05-09T21:08:07.908Z,20.64
2018-05-09T21:10:36.277Z,20.63
2018-05-09T21:13:04.608Z,20.67
2018-05-09T21:15:32.931Z,20.59
2018-05-09T21:18:01.265Z,20.53
2018-05-09T21:20:29.587Z,20.47
2018-05-09T21:22:57.934Z,20.37
2018-05-09T21:25:26.426Z,20.28
2018-05-09T21:27:54.807Z,20.13
2018-05-09T21:30:23.124Z,20.05
2018-05-09T21:32:51.482Z,19.94
2018-05-09T21:35:19.840Z,19.77
2018-05-09T21:37:48.206Z,19.73
2018-05-09T21:40:16.600Z,19.65
2018-05-09T21:42:44.949Z,19.60
2018-05-09T21:45:13.353Z,19.53
2018-05-09T21:47:41.742Z,19.48
2018-05-09T21:50:10.080Z,19.46
2018-05-09T21:52:38.418Z,19.42
2018-05-09T21:55:06.743Z,19.35
2018-05-09T21:57:35.105Z,19.38
2018-05-09T22:00:03.517Z,19.31
2018-05-09T22:02:31.837Z,19.26
2018-05-09T22:05:00.167Z,19.18
2018-05-09T22:07:28.497Z,19.15
2018-05-09T22:09:56.821Z,19.11
2018-05-09T22:12:25.143Z,19.04
2018-05-09T22:14:53.471Z,18.97
2018-05-09T22:17:21.797Z,18.96
2018-05-09T22:19:50.226Z,18.97
2018-05-09T22:22:18.550Z,19.01
2018-05-09T22:24:46.891Z,19.03
2018-05-09T22:27:15.317Z,19.05
2018-05-09T22:29:43.642Z,19.10
2018-05-09T22:32:12.042Z,19.09
2018-05-09T22:34:40.362Z,19.03
2018-05-09T22:37:08.673Z,19.07
2018-05-09T22:39:37.037Z,19.08
2018-05-09T22:42:05.367Z,19.04
2018-05-09T22:44:33.747Z,19.01
2018-05-09T22:47:02.084Z,18.97
2018-05-09T22:49:30.403Z,18.98
2018-05-09T22:51:58.723Z,18.95
2018-05-09T22:54:27.120Z,18.94
2018-05-09T22:56:55.511Z,18.88
2018-05-09T22:59:23.833Z,18.84
2018-05-09T23:01:52.195Z,18.82
2018-05-09T23:04:20.674Z,18.77
2018-05-09T23:06:49.071Z,18.71
2018-05-09T23:09:17.396Z,18.68
2018-05-09T23:11:45.737Z,18.59
2018-05-09T23:14:14.061Z,18.52
2018-05-09T23:16:42.466Z,18.50
2018-05-09T23:19:10.795Z,18.42
2018-05-09T23:21:39.099Z,18.37
2018-05-09T23:24:07.430Z,18.25
2018-05-09T23:26:35.754Z,18.24
2018-05-09T23:29:04.082Z,18.13
2018-05-09T23:31:32.410Z,18.08
2018-05-09T23:34:00.752Z,18.08
2018-05-09T23:36:29.162Z,18.06
2018-05-09T23:38:57.484Z,17.99
2018-05-09T23:41:25.801Z,17.98
2018-05-09T23:46:45.417Z,17.93
2018-05-09T23:49:13.817Z,17.88
2018-05-09T23:51:42.154Z,17.82
2018-05-09T23:54:10.479Z,17.79
2018-05-09T23:56:38.853Z,17.71
2018-05-09T23:59:07.199Z,17.67
